sensor_id;sensor_type;location;lat;lon;timestamp;P1;durP1;ratioP1;P2;durP2;ratioP2
19026;SDS011;9646;52.034;5.554;2023-02-28T00:00:09;5.32;;;2.53;;
19026;SDS011;9646;52.034;5.554;2023-02-28T00:02:37;6.20;;;2.33;;
19026;SDS011;9646;52.034;5.554;2023-02-28T00:05:06;3.58;;;2.15;;
19026;SDS011;9646;52.034;5.554;2023-02-28T00:07:33;3.40;;;2.38;;
19026;SDS011;9646;52.034;5.554;2023-02-28T00:10:00;4.28;;;2.05;;
19026;SDS011;9646;52.034;5.554;2023-02-28T00:12:28;3.58;;;2.00;;
19026;SDS011;9646;52.034;5.554;2023-02-28T00:14:55;4.57;;;2.42;;
19026;SDS011;9646;52.034;5.554;2023-02-28T00:17:22;4.07;;;2.22;;
19026;SDS011;9646;52.034;5.554;2023-02-28T00:19:49;5.13;;;2.53;;
19026;SDS011;9646;52.034;5.554;2023-02-28T00:22:19;4.00;;;1.77;;
19026;SDS011;9646;52.034;5.554;2023-02-28T00:24:46;5.20;;;2.60;;
19026;SDS011;9646;52.034;5.554;2023-02-28T00:27:13;2.85;;;2.10;;
19026;SDS011;9646;52.034;5.554;2023-02-28T00:29:40;3.22;;;2.03;;
19026;SDS011;9646;52.034;5.554;2023-02-28T00:32:07;4.72;;;2.35;;
19026;SDS011;9646;52.034;5.554;2023-02-28T00:34:35;5.00;;;2.13;;
19026;SDS011;9646;52.034;5.554;2023-02-28T00:37:03;3.60;;;2.05;;
19026;SDS011;9646;52.034;5.554;2023-02-28T00:39:32;5.40;;;2.28;;
19026;SDS011;9646;52.034;5.554;2023-02-28T00:41:59;4.40;;;2.10;;
19026;SDS011;9646;52.034;5.554;2023-02-28T00:44:27;4.20;;;2.20;;
19026;SDS011;9646;52.034;5.554;2023-02-28T00:46:54;2.30;;;1.88;;
19026;SDS011;9646;52.034;5.554;2023-02-28T00:49:21;2.55;;;1.83;;
19026;SDS011;9646;52.034;5.554;2023-02-28T00:51:48;5.53;;;2.30;;
19026;SDS011;9646;52.034;5.554;2023-02-28T00:54:16;4.15;;;2.38;;
19026;SDS011;9646;52.034;5.554;2023-02-28T00:56:44;4.90;;;2.20;;
19026;SDS011;9646;52.034;5.554;2023-02-28T00:59:12;2.70;;;1.83;;
19026;SDS011;9646;52.034;5.554;2023-02-28T01:01:39;3.85;;;2.00;;
19026;SDS011;9646;52.034;5.554;2023-02-28T01:04:06;4.30;;;2.10;;
19026;SDS011;9646;52.034;5.554;2023-02-28T01:06:33;4.43;;;2.30;;
19026;SDS011;9646;52.034;5.554;2023-02-28T01:09:00;4.03;;;2.53;;
19026;SDS011;9646;52.034;5.554;2023-02-28T01:11:27;3.28;;;2.38;;
19026;SDS011;9646;52.034;5.554;2023-02-28T01:13:56;4.65;;;2.28;;
19026;SDS011;9646;52.034;5.554;2023-02-28T01:16:23;3.13;;;2.00;;
19026;SDS011;9646;52.034;5.554;2023-02-28T01:18:50;3.33;;;2.15;;
19026;SDS011;9646;52.034;5.554;2023-02-28T01:21:18;3.28;;;2.00;;
19026;SDS011;9646;52.034;5.554;2023-02-28T01:23:46;5.22;;;2.00;;
19026;SDS011;9646;52.034;5.554;2023-02-28T01:26:14;3.28;;;1.75;;
19026;SDS011;9646;52.034;5.554;2023-02-28T01:28:41;5.78;;;2.25;;
19026;SDS011;9646;52.034;5.554;2023-02-28T01:31:10;3.90;;;1.98;;
19026;SDS011;9646;52.034;5.554;2023-02-28T01:33:37;3.65;;;2.00;;
19026;SDS011;9646;52.034;5.554;2023-02-28T01:36:05;3.20;;;1.98;;
19026;SDS011;9646;52.034;5.554;2023-02-28T01:38:32;3.72;;;2.00;;
19026;SDS011;9646;52.034;5.554;2023-02-28T01:40:59;3.60;;;1.80;;
19026;SDS011;9646;52.034;5.554;2023-02-28T01:43:27;4.10;;;2.17;;
19026;SDS011;9646;52.034;5.554;2023-02-28T01:45:55;2.97;;;2.00;;
19026;SDS011;9646;52.034;5.554;2023-02-28T01:48:24;3.53;;;2.20;;
19026;SDS011;9646;52.034;5.554;2023-02-28T01:50:53;4.50;;;2.30;;
19026;SDS011;9646;52.034;5.554;2023-02-28T01:53:23;4.65;;;1.95;;
19026;SDS011;9646;52.034;5.554;2023-02-28T01:55:52;4.75;;;2.10;;
19026;SDS011;9646;52.034;5.554;2023-02-28T01:58:21;2.80;;;2.10;;
19026;SDS011;9646;52.034;5.554;2023-02-28T02:00:48;3.35;;;2.15;;
19026;SDS011;9646;52.034;5.554;2023-02-28T02:03:16;2.92;;;2.00;;
19026;SDS011;9646;52.034;5.554;2023-02-28T02:05:46;3.47;;;2.28;;
19026;SDS011;9646;52.034;5.554;2023-02-28T02:08:15;3.70;;;2.05;;
19026;SDS011;9646;52.034;5.554;2023-02-28T02:10:44;3.25;;;2.00;;
19026;SDS011;9646;52.034;5.554;2023-02-28T02:13:25;3.22;;;2.00;;
19026;SDS011;9646;52.034;5.554;2023-02-28T02:15:56;2.92;;;2.08;;
19026;SDS011;9646;52.034;5.554;2023-02-28T02:18:28;2.92;;;2.05;;
19026;SDS011;9646;52.034;5.554;2023-02-28T02:26:37;2.20;;;1.90;;
19026;SDS011;9646;52.034;5.554;2023-02-28T02:32:06;2.15;;;1.70;;
19026;SDS011;9646;52.034;5.554;2023-02-28T02:34:40;4.53;;;2.15;;
19026;SDS011;9646;52.034;5.554;2023-02-28T02:37:11;3.92;;;2.03;;
19026;SDS011;9646;52.034;5.554;2023-02-28T02:39:42;2.88;;;1.88;;
19026;SDS011;9646;52.034;5.554;2023-02-28T02:42:12;3.10;;;1.77;;
19026;SDS011;9646;52.034;5.554;2023-02-28T02:44:42;1.92;;;1.33;;
19026;SDS011;9646;52.034;5.554;2023-02-28T02:47:11;3.78;;;1.95;;
19026;SDS011;9646;52.034;5.554;2023-02-28T02:49:42;2.67;;;1.77;;
19026;SDS011;9646;52.034;5.554;2023-02-28T02:52:10;3.72;;;1.90;;
19026;SDS011;9646;52.034;5.554;2023-02-28T02:54:40;3.67;;;1.98;;
19026;SDS011;9646;52.034;5.554;2023-02-28T02:57:10;2.72;;;1.85;;
19026;SDS011;9646;52.034;5.554;2023-02-28T02:59:39;3.75;;;2.00;;
19026;SDS011;9646;52.034;5.554;2023-02-28T03:02:07;3.63;;;2.00;;
19026;SDS011;9646;52.034;5.554;2023-02-28T03:04:38;2.10;;;1.73;;
19026;SDS011;9646;52.034;5.554;2023-02-28T03:07:08;5.80;;;1.90;;
19026;SDS011;9646;52.034;5.554;2023-02-28T03:09:35;4.40;;;2.20;;
19026;SDS011;9646;52.034;5.554;2023-02-28T03:12:02;2.10;;;1.60;;
19026;SDS011;9646;52.034;5.554;2023-02-28T03:14:40;2.35;;;1.88;;
19026;SDS011;9646;52.034;5.554;2023-02-28T03:17:17;3.75;;;1.92;;
19026;SDS011;9646;52.034;5.554;2023-02-28T03:19:51;3.30;;;1.70;;
19026;SDS011;9646;52.034;5.554;2023-02-28T03:22:24;2.58;;;1.85;;
19026;SDS011;9646;52.034;5.554;2023-02-28T03:24:54;3.88;;;1.63;;
19026;SDS011;9646;52.034;5.554;2023-02-28T03:27:23;3.45;;;1.77;;
19026;SDS011;9646;52.034;5.554;2023-02-28T03:29:52;3.38;;;1.80;;
19026;SDS011;9646;52.034;5.554;2023-02-28T03:32:21;2.25;;;1.52;;
19026;SDS011;9646;52.034;5.554;2023-02-28T03:34:52;4.10;;;2.00;;
19026;SDS011;9646;52.034;5.554;2023-02-28T03:37:24;3.20;;;1.95;;
19026;SDS011;9646;52.034;5.554;2023-02-28T03:39:55;3.65;;;1.80;;
19026;SDS011;9646;52.034;5.554;2023-02-28T03:42:24;2.30;;;1.70;;
19026;SDS011;9646;52.034;5.554;2023-02-28T03:44:54;2.38;;;1.88;;
19026;SDS011;9646;52.034;5.554;2023-02-28T03:47:23;4.05;;;1.95;;
19026;SDS011;9646;52.034;5.554;2023-02-28T03:49:53;3.25;;;1.70;;
19026;SDS011;9646;52.034;5.554;2023-02-28T03:52:21;2.85;;;1.98;;
19026;SDS011;9646;52.034;5.554;2023-02-28T03:54:52;2.78;;;1.77;;
19026;SDS011;9646;52.034;5.554;2023-02-28T03:57:22;2.28;;;1.73;;
19026;SDS011;9646;52.034;5.554;2023-02-28T03:59:54;2.88;;;1.70;;
19026;SDS011;9646;52.034;5.554;2023-02-28T04:02:23;2.65;;;1.77;;
19026;SDS011;9646;52.034;5.554;2023-02-28T04:04:50;2.50;;;1.60;;
19026;SDS011;9646;52.034;5.554;2023-02-28T04:07:17;2.88;;;1.63;;
19026;SDS011;9646;52.034;5.554;2023-02-28T04:09:44;3.15;;;1.63;;
19026;SDS011;9646;52.034;5.554;2023-02-28T04:12:13;2.92;;;1.58;;
19026;SDS011;9646;52.034;5.554;2023-02-28T04:14:41;1.83;;;1.35;;
19026;SDS011;9646;52.034;5.554;2023-02-28T04:17:08;2.92;;;1.63;;
19026;SDS011;9646;52.034;5.554;2023-02-28T04:19:35;2.20;;;1.30;;
19026;SDS011;9646;52.034;5.554;2023-02-28T04:22:02;2.25;;;1.52;;
19026;SDS011;9646;52.034;5.554;2023-02-28T04:24:29;1.75;;;1.40;;
19026;SDS011;9646;52.034;5.554;2023-02-28T04:26:57;2.47;;;1.20;;
19026;SDS011;9646;52.034;5.554;2023-02-28T04:29:27;2.05;;;1.23;;
19026;SDS011;9646;52.034;5.554;2023-02-28T04:31:54;2.58;;;1.40;;
19026;SDS011;9646;52.034;5.554;2023-02-28T04:34:23;1.33;;;1.20;;
19026;SDS011;9646;52.034;5.554;2023-02-28T04:36:50;2.00;;;1.38;;
19026;SDS011;9646;52.034;5.554;2023-02-28T04:39:19;1.70;;;1.30;;
19026;SDS011;9646;52.034;5.554;2023-02-28T04:41:47;2.60;;;1.60;;
19026;SDS011;9646;52.034;5.554;2023-02-28T04:44:14;1.70;;;1.30;;
19026;SDS011;9646;52.034;5.554;2023-02-28T04:46:43;2.08;;;1.55;;
19026;SDS011;9646;52.034;5.554;2023-02-28T04:49:11;1.27;;;1.17;;
19026;SDS011;9646;52.034;5.554;2023-02-28T04:51:38;1.52;;;1.20;;
19026;SDS011;9646;52.034;5.554;2023-02-28T04:54:05;1.60;;;1.23;;
19026;SDS011;9646;52.034;5.554;2023-02-28T04:56:32;1.52;;;1.40;;
19026;SDS011;9646;52.034;5.554;2023-02-28T04:59:00;2.50;;;1.40;;
19026;SDS011;9646;52.034;5.554;2023-02-28T05:01:28;2.33;;;1.52;;
19026;SDS011;9646;52.034;5.554;2023-02-28T05:03:57;2.15;;;1.30;;
19026;SDS011;9646;52.034;5.554;2023-02-28T05:06:25;3.20;;;1.67;;
19026;SDS011;9646;52.034;5.554;2023-02-28T05:08:52;4.32;;;1.88;;
19026;SDS011;9646;52.034;5.554;2023-02-28T05:11:20;2.83;;;1.63;;
19026;SDS011;9646;52.034;5.554;2023-02-28T05:13:48;2.78;;;1.90;;
19026;SDS011;9646;52.034;5.554;2023-02-28T05:16:15;2.35;;;1.50;;
19026;SDS011;9646;52.034;5.554;2023-02-28T05:18:42;1.60;;;1.30;;
19026;SDS011;9646;52.034;5.554;2023-02-28T05:21:23;3.65;;;1.35;;
19026;SDS011;9646;52.034;5.554;2023-02-28T05:23:50;1.85;;;1.13;;
19026;SDS011;9646;52.034;5.554;2023-02-28T05:26:18;1.98;;;1.30;;
19026;SDS011;9646;52.034;5.554;2023-02-28T05:28:45;1.90;;;1.20;;
19026;SDS011;9646;52.034;5.554;2023-02-28T05:31:12;2.47;;;1.45;;
19026;SDS011;9646;52.034;5.554;2023-02-28T05:33:40;2.50;;;1.20;;
19026;SDS011;9646;52.034;5.554;2023-02-28T05:36:07;2.33;;;1.52;;
19026;SDS011;9646;52.034;5.554;2023-02-28T05:38:36;1.92;;;1.30;;
19026;SDS011;9646;52.034;5.554;2023-02-28T05:41:06;2.03;;;1.45;;
19026;SDS011;9646;52.034;5.554;2023-02-28T05:43:33;2.45;;;1.50;;
19026;SDS011;9646;52.034;5.554;2023-02-28T05:46:02;1.92;;;1.67;;
19026;SDS011;9646;52.034;5.554;2023-02-28T05:48:29;1.92;;;1.40;;
19026;SDS011;9646;52.034;5.554;2023-02-28T05:50:56;2.47;;;1.45;;
19026;SDS011;9646;52.034;5.554;2023-02-28T05:53:24;2.72;;;1.50;;
19026;SDS011;9646;52.034;5.554;2023-02-28T05:55:52;2.90;;;1.55;;
19026;SDS011;9646;52.034;5.554;2023-02-28T05:58:19;3.15;;;1.40;;
19026;SDS011;9646;52.034;5.554;2023-02-28T06:00:46;3.30;;;1.83;;
19026;SDS011;9646;52.034;5.554;2023-02-28T06:03:14;3.65;;;1.92;;
19026;SDS011;9646;52.034;5.554;2023-02-28T06:05:41;2.38;;;1.70;;
19026;SDS011;9646;52.034;5.554;2023-02-28T06:08:08;3.80;;;1.73;;
19026;SDS011;9646;52.034;5.554;2023-02-28T06:10:35;1.95;;;1.30;;
19026;SDS011;9646;52.034;5.554;2023-02-28T06:13:04;3.80;;;1.60;;
19026;SDS011;9646;52.034;5.554;2023-02-28T06:15:31;3.10;;;1.20;;
19026;SDS011;9646;52.034;5.554;2023-02-28T06:17:58;1.85;;;1.25;;
19026;SDS011;9646;52.034;5.554;2023-02-28T06:20:26;2.78;;;1.50;;
19026;SDS011;9646;52.034;5.554;2023-02-28T06:22:54;2.40;;;1.83;;
19026;SDS011;9646;52.034;5.554;2023-02-28T06:25:23;3.50;;;1.75;;
19026;SDS011;9646;52.034;5.554;2023-02-28T06:27:50;3.22;;;1.73;;
19026;SDS011;9646;52.034;5.554;2023-02-28T06:30:19;2.97;;;1.60;;
19026;SDS011;9646;52.034;5.554;2023-02-28T06:32:49;2.25;;;1.40;;
19026;SDS011;9646;52.034;5.554;2023-02-28T06:35:16;3.30;;;1.73;;
19026;SDS011;9646;52.034;5.554;2023-02-28T06:37:44;2.40;;;1.50;;
19026;SDS011;9646;52.034;5.554;2023-02-28T06:40:12;1.77;;;1.35;;
19026;SDS011;9646;52.034;5.554;2023-02-28T06:42:39;2.78;;;1.58;;
19026;SDS011;9646;52.034;5.554;2023-02-28T06:45:07;2.67;;;1.70;;
19026;SDS011;9646;52.034;5.554;2023-02-28T06:47:36;2.25;;;1.50;;
19026;SDS011;9646;52.034;5.554;2023-02-28T06:50:04;4.10;;;1.60;;
19026;SDS011;9646;52.034;5.554;2023-02-28T06:52:31;1.90;;;1.45;;
19026;SDS011;9646;52.034;5.554;2023-02-28T06:55:01;2.20;;;1.40;;
19026;SDS011;9646;52.034;5.554;2023-02-28T06:57:28;5.38;;;1.67;;
19026;SDS011;9646;52.034;5.554;2023-02-28T06:59:57;2.97;;;1.65;;
19026;SDS011;9646;52.034;5.554;2023-02-28T07:02:24;3.17;;;1.55;;
19026;SDS011;9646;52.034;5.554;2023-02-28T07:04:52;4.40;;;1.30;;
19026;SDS011;9646;52.034;5.554;2023-02-28T07:07:19;3.42;;;1.90;;
19026;SDS011;9646;52.034;5.554;2023-02-28T07:09:47;3.08;;;1.70;;
19026;SDS011;9646;52.034;5.554;2023-02-28T07:12:14;3.35;;;1.90;;
19026;SDS011;9646;52.034;5.554;2023-02-28T07:14:41;3.17;;;1.75;;
19026;SDS011;9646;52.034;5.554;2023-02-28T07:17:08;2.25;;;1.45;;
19026;SDS011;9646;52.034;5.554;2023-02-28T07:19:37;3.60;;;1.70;;
19026;SDS011;9646;52.034;5.554;2023-02-28T07:22:05;3.88;;;1.35;;
19026;SDS011;9646;52.034;5.554;2023-02-28T07:24:32;2.45;;;1.30;;
19026;SDS011;9646;52.034;5.554;2023-02-28T07:26:59;3.08;;;1.75;;
19026;SDS011;9646;52.034;5.554;2023-02-28T07:29:26;2.13;;;1.50;;
19026;SDS011;9646;52.034;5.554;2023-02-28T07:31:54;3.97;;;1.50;;
19026;SDS011;9646;52.034;5.554;2023-02-28T07:34:21;4.15;;;1.70;;
19026;SDS011;9646;52.034;5.554;2023-02-28T07:36:48;2.53;;;1.50;;
19026;SDS011;9646;52.034;5.554;2023-02-28T07:39:20;3.65;;;1.65;;
19026;SDS011;9646;52.034;5.554;2023-02-28T07:41:47;3.30;;;1.67;;
19026;SDS011;9646;52.034;5.554;2023-02-28T07:44:14;4.25;;;1.48;;
19026;SDS011;9646;52.034;5.554;2023-02-28T07:46:41;4.70;;;1.98;;
19026;SDS011;9646;52.034;5.554;2023-02-28T07:49:08;3.03;;;1.95;;
19026;SDS011;9646;52.034;5.554;2023-02-28T07:51:35;5.57;;;2.33;;
19026;SDS011;9646;52.034;5.554;2023-02-28T07:54:02;3.53;;;1.90;;
19026;SDS011;9646;52.034;5.554;2023-02-28T07:56:31;4.05;;;1.92;;
19026;SDS011;9646;52.034;5.554;2023-02-28T07:58:58;4.30;;;1.90;;
19026;SDS011;9646;52.034;5.554;2023-02-28T08:01:26;3.95;;;2.17;;
19026;SDS011;9646;52.034;5.554;2023-02-28T08:03:53;3.25;;;1.90;;
19026;SDS011;9646;52.034;5.554;2023-02-28T08:06:22;3.13;;;2.13;;
19026;SDS011;9646;52.034;5.554;2023-02-28T08:08:50;5.65;;;2.10;;
19026;SDS011;9646;52.034;5.554;2023-02-28T08:11:17;3.90;;;2.00;;
19026;SDS011;9646;52.034;5.554;2023-02-28T08:13:46;4.38;;;1.73;;
19026;SDS011;9646;52.034;5.554;2023-02-28T08:16:13;6.13;;;1.58;;
19026;SDS011;9646;52.034;5.554;2023-02-28T08:18:46;6.63;;;2.05;;
19026;SDS011;9646;52.034;5.554;2023-02-28T08:21:13;3.25;;;1.83;;
19026;SDS011;9646;52.034;5.554;2023-02-28T08:23:40;3.50;;;1.75;;
19026;SDS011;9646;52.034;5.554;2023-02-28T08:26:07;3.17;;;1.67;;
19026;SDS011;9646;52.034;5.554;2023-02-28T08:28:34;5.07;;;1.67;;
19026;SDS011;9646;52.034;5.554;2023-02-28T08:31:03;2.58;;;1.70;;
19026;SDS011;9646;52.034;5.554;2023-02-28T08:33:33;2.17;;;1.63;;
19026;SDS011;9646;52.034;5.554;2023-02-28T08:36:01;2.10;;;1.40;;
19026;SDS011;9646;52.034;5.554;2023-02-28T08:38:28;3.85;;;1.50;;
19026;SDS011;9646;52.034;5.554;2023-02-28T08:40:56;4.15;;;1.40;;
19026;SDS011;9646;52.034;5.554;2023-02-28T08:43:24;2.88;;;1.30;;
19026;SDS011;9646;52.034;5.554;2023-02-28T08:45:51;1.60;;;1.50;;
19026;SDS011;9646;52.034;5.554;2023-02-28T08:48:20;7.32;;;1.40;;
19026;SDS011;9646;52.034;5.554;2023-02-28T08:50:54;2.72;;;1.40;;
19026;SDS011;9646;52.034;5.554;2023-02-28T08:53:21;2.33;;;1.40;;
19026;SDS011;9646;52.034;5.554;2023-02-28T08:55:55;2.83;;;1.30;;
19026;SDS011;9646;52.034;5.554;2023-02-28T08:58:22;2.08;;;1.40;;
19026;SDS011;9646;52.034;5.554;2023-02-28T09:00:49;2.47;;;1.30;;
19026;SDS011;9646;52.034;5.554;2023-02-28T09:03:17;1.83;;;1.27;;
19026;SDS011;9646;52.034;5.554;2023-02-28T09:05:52;2.58;;;1.20;;
19026;SDS011;9646;52.034;5.554;2023-02-28T09:08:19;2.15;;;1.17;;
19026;SDS011;9646;52.034;5.554;2023-02-28T09:10:46;2.58;;;1.00;;
19026;SDS011;9646;52.034;5.554;2023-02-28T09:13:13;3.28;;;1.25;;
19026;SDS011;9646;52.034;5.554;2023-02-28T09:15:41;3.03;;;1.20;;
19026;SDS011;9646;52.034;5.554;2023-02-28T09:18:08;2.28;;;1.00;;
19026;SDS011;9646;52.034;5.554;2023-02-28T09:20:36;2.30;;;1.13;;
19026;SDS011;9646;52.034;5.554;2023-02-28T09:23:05;3.05;;;1.00;;
19026;SDS011;9646;52.034;5.554;2023-02-28T09:25:32;8.77;;;2.30;;
19026;SDS011;9646;52.034;5.554;2023-02-28T09:27:59;3.97;;;2.22;;
19026;SDS011;9646;52.034;5.554;2023-02-28T09:30:27;4.75;;;1.88;;
19026;SDS011;9646;52.034;5.554;2023-02-28T09:32:54;3.22;;;1.75;;
19026;SDS011;9646;52.034;5.554;2023-02-28T09:35:22;4.35;;;1.88;;
19026;SDS011;9646;52.034;5.554;2023-02-28T09:37:50;3.78;;;1.80;;
19026;SDS011;9646;52.034;5.554;2023-02-28T09:40:19;1.70;;;1.27;;
19026;SDS011;9646;52.034;5.554;2023-02-28T09:42:48;2.70;;;1.50;;
19026;SDS011;9646;52.034;5.554;2023-02-28T09:45:18;4.95;;;2.10;;
19026;SDS011;9646;52.034;5.554;2023-02-28T09:47:46;3.75;;;1.98;;
19026;SDS011;9646;52.034;5.554;2023-02-28T09:50:17;2.78;;;1.50;;
19026;SDS011;9646;52.034;5.554;2023-02-28T09:52:45;4.07;;;1.60;;
19026;SDS011;9646;52.034;5.554;2023-02-28T09:55:18;3.60;;;1.42;;
19026;SDS011;9646;52.034;5.554;2023-02-28T09:57:47;2.92;;;1.20;;
19026;SDS011;9646;52.034;5.554;2023-02-28T10:00:16;3.05;;;1.30;;
19026;SDS011;9646;52.034;5.554;2023-02-28T10:02:57;2.55;;;1.45;;
19026;SDS011;9646;52.034;5.554;2023-02-28T10:05:28;3.10;;;1.52;;
19026;SDS011;9646;52.034;5.554;2023-02-28T10:08:00;2.72;;;1.90;;
19026;SDS011;9646;52.034;5.554;2023-02-28T10:10:32;3.83;;;1.70;;
19026;SDS011;9646;52.034;5.554;2023-02-28T10:13:02;2.20;;;1.52;;
19026;SDS011;9646;52.034;5.554;2023-02-28T10:15:31;1.70;;;1.30;;
19026;SDS011;9646;52.034;5.554;2023-02-28T10:18:00;2.55;;;1.38;;
19026;SDS011;9646;52.034;5.554;2023-02-28T10:20:29;3.20;;;1.52;;
19026;SDS011;9646;52.034;5.554;2023-02-28T10:23:00;2.33;;;1.13;;
19026;SDS011;9646;52.034;5.554;2023-02-28T10:25:33;2.15;;;1.38;;
19026;SDS011;9646;52.034;5.554;2023-02-28T10:28:05;2.20;;;1.33;;
19026;SDS011;9646;52.034;5.554;2023-02-28T10:30:32;1.67;;;1.10;;
19026;SDS011;9646;52.034;5.554;2023-02-28T10:32:59;1.63;;;1.00;;
19026;SDS011;9646;52.034;5.554;2023-02-28T10:35:26;1.67;;;1.25;;
19026;SDS011;9646;52.034;5.554;2023-02-28T10:37:54;1.88;;;1.20;;
19026;SDS011;9646;52.034;5.554;2023-02-28T10:40:27;1.38;;;1.17;;
19026;SDS011;9646;52.034;5.554;2023-02-28T10:42:55;2.03;;;1.13;;
19026;SDS011;9646;52.034;5.554;2023-02-28T10:45:24;2.95;;;1.02;;
19026;SDS011;9646;52.034;5.554;2023-02-28T10:47:53;1.63;;;1.05;;
19026;SDS011;9646;52.034;5.554;2023-02-28T10:50:29;2.97;;;1.15;;
19026;SDS011;9646;52.034;5.554;2023-02-28T10:52:57;2.08;;;1.20;;
19026;SDS011;9646;52.034;5.554;2023-02-28T10:55:31;1.13;;;0.90;;
19026;SDS011;9646;52.034;5.554;2023-02-28T10:57:59;2.15;;;0.70;;
19026;SDS011;9646;52.034;5.554;2023-02-28T11:00:33;1.80;;;1.05;;
19026;SDS011;9646;52.034;5.554;2023-02-28T11:03:01;1.45;;;1.20;;
19026;SDS011;9646;52.034;5.554;2023-02-28T11:05:29;1.42;;;1.00;;
19026;SDS011;9646;52.034;5.554;2023-02-28T11:07:57;1.90;;;0.85;;
19026;SDS011;9646;52.034;5.554;2023-02-28T11:10:26;1.50;;;1.10;;
19026;SDS011;9646;52.034;5.554;2023-02-28T11:12:55;2.95;;;1.10;;
19026;SDS011;9646;52.034;5.554;2023-02-28T11:15:24;1.42;;;0.93;;
19026;SDS011;9646;52.034;5.554;2023-02-28T11:17:56;1.92;;;1.15;;
19026;SDS011;9646;52.034;5.554;2023-02-28T11:20:25;1.40;;;0.90;;
19026;SDS011;9646;52.034;5.554;2023-02-28T11:22:53;1.77;;;0.85;;
19026;SDS011;9646;52.034;5.554;2023-02-28T11:25:21;1.55;;;1.17;;
19026;SDS011;9646;52.034;5.554;2023-02-28T11:27:50;1.38;;;0.90;;
19026;SDS011;9646;52.034;5.554;2023-02-28T11:30:24;1.45;;;1.08;;
19026;SDS011;9646;52.034;5.554;2023-02-28T11:32:51;1.35;;;1.20;;
19026;SDS011;9646;52.034;5.554;2023-02-28T11:35:21;2.03;;;1.08;;
19026;SDS011;9646;52.034;5.554;2023-02-28T11:37:50;1.65;;;0.80;;
19026;SDS011;9646;52.034;5.554;2023-02-28T11:40:17;1.08;;;0.75;;
19026;SDS011;9646;52.034;5.554;2023-02-28T11:42:50;1.98;;;1.08;;
19026;SDS011;9646;52.034;5.554;2023-02-28T11:45:22;1.38;;;0.82;;
19026;SDS011;9646;52.034;5.554;2023-02-28T11:47:54;1.45;;;1.13;;
19026;SDS011;9646;52.034;5.554;2023-02-28T11:50:31;1.55;;;0.90;;
19026;SDS011;9646;52.034;5.554;2023-02-28T11:53:05;1.13;;;0.90;;
19026;SDS011;9646;52.034;5.554;2023-02-28T11:55:35;1.08;;;0.98;;
19026;SDS011;9646;52.034;5.554;2023-02-28T11:58:11;0.88;;;0.82;;
19026;SDS011;9646;52.034;5.554;2023-02-28T12:00:45;0.75;;;0.60;;
19026;SDS011;9646;52.034;5.554;2023-02-28T12:03:22;1.08;;;0.80;;
19026;SDS011;9646;52.034;5.554;2023-02-28T12:05:56;0.93;;;0.70;;
19026;SDS011;9646;52.034;5.554;2023-02-28T12:08:26;0.70;;;0.60;;
19026;SDS011;9646;52.034;5.554;2023-02-28T12:11:01;1.67;;;0.82;;
19026;SDS011;9646;52.034;5.554;2023-02-28T12:13:34;4.68;;;0.80;;
19026;SDS011;9646;52.034;5.554;2023-02-28T12:19:00;1.10;;;0.75;;
19026;SDS011;9646;52.034;5.554;2023-02-28T12:21:34;1.17;;;0.90;;
19026;SDS011;9646;52.034;5.554;2023-02-28T12:24:13;1.65;;;1.10;;
19026;SDS011;9646;52.034;5.554;2023-02-28T12:26:44;1.73;;;1.00;;
19026;SDS011;9646;52.034;5.554;2023-02-28T12:29:13;3.10;;;0.80;;
19026;SDS011;9646;52.034;5.554;2023-02-28T12:31:42;2.50;;;1.02;;
19026;SDS011;9646;52.034;5.554;2023-02-28T12:34:12;1.23;;;0.75;;
19026;SDS011;9646;52.034;5.554;2023-02-28T12:36:41;1.52;;;0.90;;
19026;SDS011;9646;52.034;5.554;2023-02-28T12:39:11;1.10;;;0.88;;
19026;SDS011;9646;52.034;5.554;2023-02-28T12:41:40;1.67;;;1.00;;
19026;SDS011;9646;52.034;5.554;2023-02-28T12:44:09;1.00;;;0.70;;
19026;SDS011;9646;52.034;5.554;2023-02-28T12:46:38;1.88;;;1.20;;
19026;SDS011;9646;52.034;5.554;2023-02-28T12:49:08;1.38;;;0.95;;
19026;SDS011;9646;52.034;5.554;2023-02-28T12:51:36;1.58;;;0.98;;
19026;SDS011;9646;52.034;5.554;2023-02-28T12:54:12;1.77;;;0.80;;
19026;SDS011;9646;52.034;5.554;2023-02-28T12:56:43;1.65;;;0.90;;
19026;SDS011;9646;52.034;5.554;2023-02-28T12:59:14;1.75;;;0.80;;
19026;SDS011;9646;52.034;5.554;2023-02-28T13:01:47;1.75;;;0.70;;
19026;SDS011;9646;52.034;5.554;2023-02-28T13:04:24;1.23;;;0.90;;
19026;SDS011;9646;52.034;5.554;2023-02-28T13:06:59;2.42;;;0.98;;
19026;SDS011;9646;52.034;5.554;2023-02-28T13:09:32;2.28;;;1.13;;
19026;SDS011;9646;52.034;5.554;2023-02-28T13:11:59;1.20;;;0.90;;
19026;SDS011;9646;52.034;5.554;2023-02-28T13:14:28;1.67;;;0.95;;
19026;SDS011;9646;52.034;5.554;2023-02-28T13:16:57;1.25;;;0.90;;
19026;SDS011;9646;52.034;5.554;2023-02-28T13:19:25;1.45;;;0.80;;
19026;SDS011;9646;52.034;5.554;2023-02-28T13:21:53;2.13;;;0.85;;
19026;SDS011;9646;52.034;5.554;2023-02-28T13:24:42;2.25;;;0.90;;
19026;SDS011;9646;52.034;5.554;2023-02-28T13:29:57;1.77;;;1.02;;
19026;SDS011;9646;52.034;5.554;2023-02-28T13:35:13;1.50;;;1.00;;
19026;SDS011;9646;52.034;5.554;2023-02-28T13:37:43;1.42;;;1.00;;
19026;SDS011;9646;52.034;5.554;2023-02-28T13:43:03;1.25;;;0.90;;
19026;SDS011;9646;52.034;5.554;2023-02-28T13:45:30;1.10;;;0.90;;
19026;SDS011;9646;52.034;5.554;2023-02-28T13:48:03;1.83;;;1.10;;
19026;SDS011;9646;52.034;5.554;2023-02-28T13:50:32;0.95;;;0.77;;
19026;SDS011;9646;52.034;5.554;2023-02-28T13:55:46;1.10;;;0.75;;
19026;SDS011;9646;52.034;5.554;2023-02-28T13:58:22;1.20;;;0.90;;
19026;SDS011;9646;52.034;5.554;2023-02-28T14:00:59;1.30;;;1.20;;
19026;SDS011;9646;52.034;5.554;2023-02-28T14:03:33;0.85;;;0.70;;
19026;SDS011;9646;52.034;5.554;2023-02-28T14:06:08;0.60;;;0.60;;
19026;SDS011;9646;52.034;5.554;2023-02-28T14:08:37;0.90;;;0.70;;
19026;SDS011;9646;52.034;5.554;2023-02-28T14:11:05;2.42;;;0.95;;
19026;SDS011;9646;52.034;5.554;2023-02-28T14:13:41;2.67;;;1.40;;
19026;SDS011;9646;52.034;5.554;2023-02-28T14:16:11;0.95;;;0.75;;
19026;SDS011;9646;52.034;5.554;2023-02-28T14:18:40;3.20;;;0.90;;
19026;SDS011;9646;52.034;5.554;2023-02-28T14:21:09;1.45;;;0.90;;
19026;SDS011;9646;52.034;5.554;2023-02-28T14:23:54;1.00;;;0.77;;
19026;SDS011;9646;52.034;5.554;2023-02-28T14:26:29;0.60;;;0.60;;
19026;SDS011;9646;52.034;5.554;2023-02-28T14:29:03;1.13;;;0.82;;
19026;SDS011;9646;52.034;5.554;2023-02-28T14:31:36;1.85;;;0.80;;
19026;SDS011;9646;52.034;5.554;2023-02-28T14:34:13;0.88;;;0.63;;
19026;SDS011;9646;52.034;5.554;2023-02-28T14:36:44;1.30;;;0.70;;
19026;SDS011;9646;52.034;5.554;2023-02-28T14:39:12;0.85;;;0.65;;
19026;SDS011;9646;52.034;5.554;2023-02-28T14:41:40;2.10;;;0.70;;
19026;SDS011;9646;52.034;5.554;2023-02-28T14:44:16;0.80;;;0.52;;
19026;SDS011;9646;52.034;5.554;2023-02-28T14:46:44;1.27;;;0.88;;
19026;SDS011;9646;52.034;5.554;2023-02-28T14:49:16;2.45;;;1.25;;
19026;SDS011;9646;52.034;5.554;2023-02-28T14:51:44;1.52;;;1.20;;
19026;SDS011;9646;52.034;5.554;2023-02-28T14:54:13;1.33;;;0.77;;
19026;SDS011;9646;52.034;5.554;2023-02-28T14:56:41;1.02;;;0.80;;
19026;SDS011;9646;52.034;5.554;2023-02-28T14:59:22;1.90;;;0.88;;
19026;SDS011;9646;52.034;5.554;2023-02-28T15:01:50;1.33;;;0.63;;
19026;SDS011;9646;52.034;5.554;2023-02-28T15:04:26;1.67;;;0.95;;
19026;SDS011;9646;52.034;5.554;2023-02-28T15:07:09;0.85;;;0.60;;
19026;SDS011;9646;52.034;5.554;2023-02-28T15:09:36;1.00;;;0.80;;
19026;SDS011;9646;52.034;5.554;2023-02-28T15:12:03;1.10;;;0.90;;
19026;SDS011;9646;52.034;5.554;2023-02-28T15:14:31;1.15;;;0.70;;
19026;SDS011;9646;52.034;5.554;2023-02-28T15:17:01;1.88;;;1.00;;
19026;SDS011;9646;52.034;5.554;2023-02-28T15:19:29;2.03;;;0.85;;
19026;SDS011;9646;52.034;5.554;2023-02-28T15:21:57;2.63;;;1.27;;
19026;SDS011;9646;52.034;5.554;2023-02-28T15:24:29;1.77;;;1.17;;
19026;SDS011;9646;52.034;5.554;2023-02-28T15:26:58;2.83;;;0.90;;
19026;SDS011;9646;52.034;5.554;2023-02-28T15:29:26;2.65;;;0.82;;
19026;SDS011;9646;52.034;5.554;2023-02-28T15:31:58;0.95;;;0.60;;
19026;SDS011;9646;52.034;5.554;2023-02-28T15:34:27;1.52;;;0.88;;